Time;durP1;ratioP1;P1;durP2;ratioP2;P2;SDS_P1;SDS_P2;PMS_P1;PMS_P2;Temp;Humidity;BMP_temperature;BMP_pressure;BME280_temperature;BME280_humidity;BME280_pressure;Samples;Min_cycle;Max_cycle;Signal;HPM_P1;HPM_P2
2022/03/25 00:01:02;;;;;;;30.00;12.20;;;1.10;99.90;;;;;;5038476;28;20056;-71
2022/03/25 00:03:29;;;;;;;37.22;13.13;;;1.10;99.90;;;;;;5038086;28;20029;-70
2022/03/25 00:05:58;;;;;;;31.58;12.50;;;1.20;99.90;;;;;;5038132;28;20033;-70
2022/03/25 00:08:26;;;;;;;28.20;11.80;;;1.20;99.90;;;;;;5038288;28;20390;-70
2022/03/25 00:10:53;;;;;;;27.65;11.60;;;1.30;99.90;;;;;;5037964;28;20033;-70
2022/03/25 00:13:21;;;;;;;31.15;12.00;;;1.20;99.90;;;;;;5037682;28;20026;-70
2022/03/25 00:15:48;;;;;;;31.00;10.82;;;1.30;99.90;;;;;;5037756;28;20022;-70
2022/03/25 00:18:16;;;;;;;28.17;10.70;;;1.20;99.90;;;;;;5020073;28;20026;-70
2022/03/25 00:20:45;;;;;;;22.98;10.45;;;1.20;99.90;;;;;;5020280;28;20117;-70
2022/03/25 00:23:12;;;;;;;21.55;9.10;;;1.20;99.90;;;;;;5037613;28;20022;-70
2022/03/25 00:25:40;;;;;;;27.17;9.88;;;1.10;99.90;;;;;;5038089;28;20029;-70
2022/03/25 00:28:07;;;;;;;28.83;11.25;;;1.00;99.90;;;;;;5037362;28;20025;-71
2022/03/25 00:30:34;;;;;;;29.33;10.98;;;0.90;99.90;;;;;;5020153;28;20021;-71
2022/03/25 00:33:02;;;;;;;25.00;10.55;;;0.90;99.90;;;;;;5016416;28;20045;-71
2022/03/25 00:35:29;;;;;;;28.75;11.63;;;0.80;99.90;;;;;;5017720;28;20077;-70
2022/03/25 00:37:58;;;;;;;26.52;11.02;;;0.80;99.90;;;;;;5017717;28;20026;-70
2022/03/25 00:40:25;;;;;;;28.33;11.60;;;0.80;99.90;;;;;;5016343;28;20310;-71
2022/03/25 00:42:52;;;;;;;33.45;10.85;;;0.80;99.90;;;;;;5018154;28;20104;-70
2022/03/25 00:45:21;;;;;;;24.55;10.85;;;0.80;99.90;;;;;;5016541;28;20030;-70
2022/03/25 00:47:48;;;;;;;27.20;11.48;;;0.80;99.90;;;;;;5017410;28;20072;-70
2022/03/25 00:50:16;;;;;;;29.45;10.07;;;0.80;99.90;;;;;;5018280;28;20114;-71
2022/03/25 00:52:44;;;;;;;27.50;12.13;;;0.80;99.90;;;;;;5017549;28;20022;-71
2022/03/25 00:55:11;;;;;;;26.15;10.65;;;0.80;99.90;;;;;;5017700;28;20445;-70
2022/03/25 00:57:39;;;;;;;23.75;10.23;;;0.80;99.90;;;;;;5017448;28;20034;-71
2022/03/25 01:00:07;;;;;;;21.88;9.68;;;0.80;99.90;;;;;;5018011;28;20029;-70
2022/03/25 01:02:35;;;;;;;27.63;10.80;;;0.70;99.90;;;;;;5017332;28;20037;-70
2022/03/25 01:05:03;;;;;;;28.02;10.13;;;0.70;99.90;;;;;;5017526;28;20030;-71
2022/03/25 01:07:30;;;;;;;26.30;10.70;;;0.60;99.90;;;;;;5016228;28;20114;-70
2022/03/25 01:09:57;;;;;;;26.13;11.73;;;0.60;99.90;;;;;;5017662;28;20025;-70
2022/03/25 01:12:26;;;;;;;24.42;9.48;;;0.60;99.90;;;;;;5017866;28;20346;-70
2022/03/25 01:14:53;;;;;;;24.42;10.00;;;0.50;99.90;;;;;;5017504;28;20018;-70
2022/03/25 01:17:21;;;;;;;27.25;12.30;;;0.50;99.90;;;;;;5017218;28;20022;-70
2022/03/25 01:19:48;;;;;;;29.15;11.68;;;0.50;99.90;;;;;;5017534;28;20030;-70
2022/03/25 01:22:16;;;;;;;29.00;11.15;;;0.50;99.90;;;;;;5016737;28;20322;-70
2022/03/25 01:24:44;;;;;;;30.30;10.65;;;0.50;99.90;;;;;;5017218;28;20369;-70
2022/03/25 01:27:12;;;;;;;30.02;11.63;;;0.40;99.90;;;;;;5017071;28;20441;-70
2022/03/25 01:29:40;;;;;;;27.63;10.18;;;0.40;99.90;;;;;;5017465;28;20079;-70
2022/03/25 01:32:08;;;;;;;26.67;10.10;;;0.40;99.90;;;;;;5017069;28;20026;-70
2022/03/25 01:34:36;;;;;;;27.77;10.85;;;0.30;99.90;;;;;;5034660;28;20037;-70
2022/03/25 01:37:03;;;;;;;26.48;10.10;;;0.30;99.90;;;;;;5036842;28;20409;-70
2022/03/25 01:39:31;;;;;;;30.08;10.88;;;0.30;99.90;;;;;;5037361;28;20029;-70
2022/03/25 01:41:59;;;;;;;32.10;9.63;;;0.40;99.90;;;;;;5019417;28;20025;-71
2022/03/25 01:44:29;;;;;;;25.73;9.82;;;0.40;99.90;;;;;;5036974;28;20185;-70
2022/03/25 01:46:58;;;;;;;25.65;9.00;;;0.40;99.90;;;;;;5036634;28;20320;-70
2022/03/25 01:49:25;;;;;;;30.60;9.60;;;0.40;99.90;;;;;;5037286;28;20095;-70
2022/03/25 01:51:55;;;;;;;23.85;8.95;;;0.40;99.90;;;;;;5036748;28;20025;-70
2022/03/25 01:54:29;;;;;;;25.13;9.38;;;0.40;99.90;;;;;;5040250;28;20028;-71
2022/03/25 01:57:05;;;;;;;30.23;9.85;;;0.40;99.90;;;;;;5040217;28;20041;-70
2022/03/25 01:59:32;;;;;;;;;;;0.40;99.90;;;;;;5023043;28;20322;-70
2022/03/25 02:02:01;;;;;;;24.95;10.40;;;0.30;99.90;;;;;;5040219;28;19972;-70
2022/03/25 02:04:29;;;;;;;27.17;10.60;;;0.30;99.90;;;;;;5040753;28;20021;-70
2022/03/25 02:06:56;;;;;;;31.30;11.05;;;0.30;99.90;;;;;;5039259;28;20018;-71
2022/03/25 02:09:26;;;;;;;23.33;8.98;;;0.30;99.90;;;;;;5040004;28;20018;-71
2022/03/25 02:11:54;;;;;;;25.73;9.48;;;0.20;99.90;;;;;;5039933;28;20026;-70
2022/03/25 02:14:22;;;;;;;25.20;8.95;;;0.20;99.90;;;;;;5040025;28;20021;-70
2022/03/25 02:16:50;;;;;;;27.50;8.63;;;0.20;99.90;;;;;;5040291;28;20109;-70
2022/03/25 02:19:19;;;;;;;20.13;8.68;;;0.10;99.90;;;;;;5040358;28;20097;-70
2022/03/25 02:21:47;;;;;;;23.67;9.32;;;0.10;99.90;;;;;;5022145;28;20172;-71
2022/03/25 02:24:15;;;;;;;28.30;10.20;;;0.00;99.90;;;;;;5039880;28;20021;-70
2022/03/25 02:26:44;;;;;;;28.20;11.13;;;0.00;99.90;;;;;;5039639;28;20022;-70
2022/03/25 02:29:17;;;;;;;28.70;11.02;;;0.00;99.90;;;;;;5039556;28;20489;-70
2022/03/25 02:31:44;;;;;;;25.08;10.48;;;0.10;99.90;;;;;;5039533;28;20021;-70
2022/03/25 02:34:12;;;;;;;21.75;8.98;;;0.00;99.90;;;;;;5039530;28;20459;-70
2022/03/25 02:36:41;;;;;;;30.60;10.48;;;0.10;99.90;;;;;;5040254;28;20087;-70
2022/03/25 02:39:10;;;;;;;25.95;8.88;;;0.10;99.90;;;;;;5039456;28;20021;-70
2022/03/25 02:41:37;;;;;;;26.98;9.10;;;0.00;99.90;;;;;;5021800;28;20083;-70
2022/03/25 02:44:04;;;;;;;24.83;8.85;;;0.00;99.90;;;;;;5040052;28;20029;-70
2022/03/25 02:46:32;;;;;;;28.83;9.48;;;0.00;99.90;;;;;;5039496;28;20021;-70
2022/03/25 02:49:01;;;;;;;27.60;9.13;;;-0.10;99.90;;;;;;5039124;28;20037;-70
2022/03/25 02:51:28;;;;;;;23.00;9.40;;;-0.10;99.90;;;;;;5039626;28;20041;-70
2022/03/25 02:53:56;;;;;;;23.45;9.95;;;-0.10;99.90;;;;;;5039161;28;20053;-70
2022/03/25 02:56:27;;;;;;;23.95;9.20;;;-0.10;99.90;;;;;;5039118;28;20071;-70
2022/03/25 02:58:56;;;;;;;28.52;9.73;;;-0.10;99.90;;;;;;5039544;28;20030;-70
2022/03/25 03:01:24;;;;;;;22.20;8.60;;;-0.10;99.90;;;;;;5038878;28;20036;-70
2022/03/25 03:03:51;;;;;;;25.58;10.93;;;-0.10;99.90;;;;;;5038779;28;20026;-70
2022/03/25 03:06:18;;;;;;;18.35;8.98;;;-0.20;99.90;;;;;;5038918;28;20022;-70
2022/03/25 03:08:46;;;;;;;28.95;9.45;;;-0.20;99.90;;;;;;5039041;28;20444;-70
2022/03/25 03:11:13;;;;;;;28.35;10.18;;;-0.20;99.90;;;;;;5038775;28;20028;-70
2022/03/25 03:13:41;;;;;;;22.08;9.25;;;-0.30;99.90;;;;;;5039044;28;20032;-70
2022/03/25 03:16:09;;;;;;;23.65;9.10;;;-0.30;99.90;;;;;;5038705;28;20045;-70
2022/03/25 03:18:37;;;;;;;25.00;8.70;;;-0.30;99.90;;;;;;5038772;28;20032;-70
2022/03/25 03:21:05;;;;;;;30.33;9.02;;;-0.30;99.90;;;;;;5038587;28;20021;-70
2022/03/25 03:23:32;;;;;;;24.08;9.60;;;-0.30;99.90;;;;;;5039129;28;20026;-70
2022/03/25 03:26:01;;;;;;;22.92;9.40;;;-0.30;99.90;;;;;;5039056;28;20083;-70
2022/03/25 03:28:28;;;;;;;20.17;7.38;;;-0.30;99.90;;;;;;5020906;28;20031;-71
2022/03/25 03:30:55;;;;;;;24.77;8.93;;;-0.30;99.90;;;;;;5037980;28;20053;-71
2022/03/25 03:33:23;;;;;;;19.80;8.82;;;-0.30;99.90;;;;;;5038413;28;20052;-71
2022/03/25 03:35:51;;;;;;;22.60;10.23;;;-0.30;99.90;;;;;;5020831;28;20021;-71
2022/03/25 03:38:18;;;;;;;18.15;8.35;;;-0.30;99.90;;;;;;5038309;28;20060;-70
2022/03/25 03:40:46;;;;;;;22.85;9.90;;;-0.30;99.90;;;;;;5038479;28;20100;-70
2022/03/25 03:43:13;;;;;;;18.38;7.20;;;-0.40;99.90;;;;;;5020717;28;20032;-70
2022/03/25 03:45:41;;;;;;;24.25;8.73;;;-0.40;99.90;;;;;;5020948;28;20341;-71
2022/03/25 03:48:08;;;;;;;20.77;7.40;;;-0.40;99.90;;;;;;5020498;28;20033;-70
2022/03/25 03:50:35;;;;;;;22.17;8.93;;;-0.40;99.90;;;;;;5020712;28;20025;-70
2022/03/25 03:53:03;;;;;;;20.42;8.13;;;-0.40;99.90;;;;;;5038585;28;20021;-70
2022/03/25 03:55:31;;;;;;;22.13;8.70;;;-0.40;99.90;;;;;;5038568;28;20017;-70
2022/03/25 03:57:58;;;;;;;24.30;7.50;;;-0.40;99.90;;;;;;5020454;28;20021;-71
2022/03/25 04:00:25;;;;;;;24.35;8.60;;;-0.40;99.90;;;;;;5038627;28;20022;-70
2022/03/25 04:02:53;;;;;;;21.67;8.38;;;-0.50;99.90;;;;;;5038003;28;20076;-71
2022/03/25 04:05:21;;;;;;;19.65;8.52;;;-0.50;99.90;;;;;;5038381;28;20421;-71
2022/03/25 04:07:48;;;;;;;21.83;8.25;;;-0.50;99.90;;;;;;5038296;28;20068;-71
2022/03/25 04:10:17;;;;;;;16.40;7.80;;;-0.50;99.90;;;;;;5037936;28;20049;-70
2022/03/25 04:12:45;;;;;;;18.48;8.38;;;-0.50;99.90;;;;;;5037205;28;20381;-71
2022/03/25 04:15:15;;;;;;;23.67;8.13;;;-0.60;99.90;;;;;;5036648;28;20480;-70
2022/03/25 04:17:45;;;;;;;17.83;6.65;;;-0.60;99.90;;;;;;5037502;28;20036;-70
2022/03/25 04:20:14;;;;;;;21.08;7.90;;;-0.60;99.90;;;;;;5037550;28;20104;-71
2022/03/25 04:22:42;;;;;;;22.42;7.65;;;-0.60;99.90;;;;;;5020100;28;20087;-70
2022/03/25 04:25:13;;;;;;;26.73;7.40;;;-0.70;99.90;;;;;;5020264;28;20036;-70
2022/03/25 04:27:53;;;;;;;21.08;8.25;;;-0.70;99.90;;;;;;5037732;28;20025;-70
2022/03/25 04:30:24;;;;;;;20.30;8.00;;;-0.70;99.90;;;;;;5019928;28;20022;-70
2022/03/25 04:32:52;;;;;;;27.58;9.73;;;-0.70;99.90;;;;;;5037549;28;20052;-70
2022/03/25 04:35:20;;;;;;;27.38;8.00;;;-0.70;99.90;;;;;;5037535;28;20022;-70
2022/03/25 04:37:47;;;;;;;20.95;7.65;;;-0.70;99.90;;;;;;5037687;28;20033;-70
2022/03/25 04:40:20;;;;;;;22.80;8.40;;;-0.70;99.90;;;;;;5037395;28;20415;-70
2022/03/25 04:42:50;;;;;;;24.40;9.30;;;-0.70;99.90;;;;;;5037849;28;20029;-70
2022/03/25 04:45:17;;;;;;;18.27;8.07;;;-0.70;99.90;;;;;;5037481;28;20021;-70
2022/03/25 04:47:45;;;;;;;21.10;6.88;;;-0.80;99.90;;;;;;5037136;28;20049;-70
2022/03/25 04:50:12;;;;;;;20.05;7.53;;;-0.80;99.90;;;;;;5037221;28;20353;-70
2022/03/25 04:52:40;;;;;;;21.40;7.53;;;-0.80;99.90;;;;;;5037223;28;20028;-70
2022/03/25 04:55:08;;;;;;;22.02;8.20;;;-0.80;99.90;;;;;;5036663;28;20413;-72
2022/03/25 04:57:36;;;;;;;19.98;8.30;;;-0.80;99.90;;;;;;5019653;28;20445;-70
2022/03/25 05:00:04;;;;;;;19.83;7.65;;;-0.80;99.90;;;;;;5037179;28;20417;-70
2022/03/25 05:02:31;;;;;;;18.98;7.45;;;-0.80;99.90;;;;;;5037069;28;20100;-70
2022/03/25 05:04:58;;;;;;;23.77;7.25;;;-0.90;99.90;;;;;;5037565;28;20025;-70
2022/03/25 05:07:26;;;;;;;18.23;7.78;;;-0.90;99.90;;;;;;5019546;28;20022;-70
2022/03/25 05:09:53;;;;;;;18.85;7.80;;;-0.90;99.90;;;;;;5037646;28;20406;-70
2022/03/25 05:12:21;;;;;;;19.88;7.78;;;-0.90;99.90;;;;;;5019511;28;20065;-70
2022/03/25 05:14:49;;;;;;;22.85;7.85;;;-0.90;99.90;;;;;;5019643;28;20425;-70
2022/03/25 05:17:16;;;;;;;19.45;7.43;;;-0.90;99.90;;;;;;5036400;28;20030;-70
2022/03/25 05:19:43;;;;;;;23.15;8.07;;;-1.00;99.90;;;;;;5019378;28;20021;-70
2022/03/25 05:22:11;;;;;;;25.67;8.07;;;-1.00;99.90;;;;;;5036978;28;20040;-70
2022/03/25 05:24:38;;;;;;;22.15;8.65;;;-1.00;99.90;;;;;;5036969;28;20091;-70
2022/03/25 05:27:07;;;;;;;21.00;8.07;;;-1.00;99.90;;;;;;5020736;28;20017;-70
2022/03/25 05:29:35;;;;;;;22.40;7.07;;;-1.00;99.90;;;;;;5023171;28;20025;-70
2022/03/25 05:32:03;;;;;;;18.52;7.25;;;-0.90;99.90;;;;;;5023083;28;20033;-70
2022/03/25 05:34:30;;;;;;;28.15;6.45;;;-0.90;99.90;;;;;;5019627;28;20042;-70
2022/03/25 05:36:57;;;;;;;20.80;7.10;;;-0.80;99.90;;;;;;5019869;28;20037;-70
2022/03/25 05:39:25;;;;;;;24.50;7.78;;;-0.80;99.90;;;;;;5019948;28;20022;-70
2022/03/25 05:41:53;;;;;;;18.35;7.07;;;-0.80;99.90;;;;;;5021297;28;20040;-70
2022/03/25 05:44:20;;;;;;;23.45;8.73;;;-0.80;99.90;;;;;;5021230;28;20050;-70
2022/03/25 05:46:47;;;;;;;16.88;7.28;;;-0.80;99.90;;;;;;5021151;28;20033;-70
2022/03/25 05:49:15;;;;;;;15.88;6.90;;;-0.80;99.90;;;;;;5020687;28;20448;-71
2022/03/25 05:51:42;;;;;;;20.33;7.60;;;-0.80;99.90;;;;;;5014716;28;20021;-70
2022/03/25 05:54:09;;;;;;;18.88;7.35;;;-0.80;99.90;;;;;;5021070;28;20104;-71
2022/03/25 05:56:39;;;;;;;19.85;6.75;;;-0.70;99.90;;;;;;5020126;28;20034;-70
2022/03/25 05:59:06;;;;;;;19.17;6.75;;;-0.70;99.90;;;;;;5020605;28;20058;-70
2022/03/25 06:01:34;;;;;;;51.50;8.90;;;-0.70;99.90;;;;;;5019109;28;20026;-71
2022/03/25 06:04:01;;;;;;;28.00;8.30;;;-0.60;99.90;;;;;;5020029;28;20053;-70
2022/03/25 06:06:29;;;;;;;24.42;6.75;;;-0.60;99.90;;;;;;5019252;28;20030;-70
2022/03/25 06:08:56;;;;;;;22.40;7.28;;;-0.50;99.90;;;;;;5020347;28;20030;-71
2022/03/25 06:11:23;;;;;;;22.27;7.25;;;-0.50;99.90;;;;;;5019156;28;20021;-70
2022/03/25 06:13:51;;;;;;;24.20;8.80;;;-0.40;99.90;;;;;;5020135;28;20018;-70
2022/03/25 06:16:18;;;;;;;23.83;7.53;;;-0.30;99.90;;;;;;5018957;28;20068;-70
2022/03/25 06:18:46;;;;;;;21.52;8.90;;;-0.30;99.90;;;;;;5019831;28;20022;-70
2022/03/25 06:21:14;;;;;;;23.40;10.15;;;-0.20;99.90;;;;;;5019599;28;20441;-69
2022/03/25 06:23:41;;;;;;;21.02;7.43;;;-0.10;99.90;;;;;;5018812;28;20374;-68
2022/03/25 06:26:09;;;;;;;25.08;8.90;;;-0.10;99.90;;;;;;5020400;28;20022;-69
2022/03/25 06:28:36;;;;;;;24.48;8.35;;;0.00;99.90;;;;;;5018851;28;20083;-69
2022/03/25 06:31:04;;;;;;;25.58;7.85;;;0.00;99.90;;;;;;5018725;28;20414;-69
2022/03/25 06:33:32;;;;;;;38.90;9.10;;;0.10;99.90;;;;;;5028156;28;20037;-69
2022/03/25 06:35:59;;;;;;;20.75;7.13;;;0.20;99.90;;;;;;5021970;28;20021;-67
2022/03/25 06:38:26;;;;;;;20.50;7.72;;;0.40;99.90;;;;;;5038617;28;20022;-71
2022/03/25 06:40:54;;;;;;;29.08;9.10;;;0.40;99.90;;;;;;5039805;28;20045;-73
2022/03/25 06:43:22;;;;;;;32.60;8.93;;;0.50;99.90;;;;;;5021742;28;20029;-72
2022/03/25 06:45:50;;;;;;;22.35;8.38;;;0.60;99.90;;;;;;5039632;28;20033;-73
2022/03/25 06:48:18;;;;;;;24.80;7.65;;;0.70;99.90;;;;;;5021127;28;20146;-73
2022/03/25 06:50:45;;;;;;;23.95;9.15;;;0.80;99.90;;;;;;5020947;28;20028;-72
2022/03/25 06:53:13;;;;;;;42.05;13.88;;;0.90;99.90;;;;;;5039717;28;20101;-68
2022/03/25 06:55:43;;;;;;;29.65;9.25;;;1.00;99.90;;;;;;5021831;28;20325;-66
2022/03/25 06:58:13;;;;;;;23.75;7.57;;;1.10;99.90;;;;;;5039831;28;20026;-67
2022/03/25 07:00:41;;;;;;;22.90;8.90;;;1.20;99.90;;;;;;5039173;28;20080;-67
2022/03/25 07:03:09;;;;;;;23.05;9.00;;;1.40;99.90;;;;;;5038179;28;20022;-66
2022/03/25 07:05:37;;;;;;;22.42;7.88;;;1.50;99.90;;;;;;5039060;28;20034;-66
2022/03/25 07:08:05;;;;;;;20.80;8.50;;;1.60;99.90;;;;;;5021275;28;20076;-66
2022/03/25 07:10:33;;;;;;;26.85;9.15;;;1.70;99.90;;;;;;5039114;28;20103;-67
2022/03/25 07:13:01;;;;;;;22.75;9.55;;;1.80;99.90;;;;;;5021239;28;20076;-66
2022/03/25 07:15:29;;;;;;;39.70;10.30;;;1.90;99.90;;;;;;5039339;28;20396;-67
2022/03/25 07:17:57;;;;;;;27.10;9.32;;;2.00;99.90;;;;;;5038937;28;20025;-67
2022/03/25 07:20:26;;;;;;;23.92;9.57;;;2.10;99.90;;;;;;5039091;28;20400;-67
2022/03/25 07:22:55;;;;;;;27.75;8.95;;;2.20;99.90;;;;;;5020962;28;20057;-71
2022/03/25 07:25:22;;;;;;;28.70;10.35;;;2.40;99.90;;;;;;5021087;28;20040;-69
2022/03/25 07:27:49;;;;;;;23.55;9.25;;;2.50;99.90;;;;;;5020881;28;20033;-69
2022/03/25 07:30:18;;;;;;;25.35;9.85;;;2.60;99.90;;;;;;5021066;28;20357;-69
2022/03/25 07:32:45;;;;;;;26.13;9.75;;;2.80;99.90;;;;;;5038046;28;20067;-69
2022/03/25 07:35:13;;;;;;;32.17;11.45;;;2.80;99.90;;;;;;5038358;28;20025;-67
2022/03/25 07:37:42;;;;;;;22.08;9.50;;;3.00;99.90;;;;;;5038333;28;20033;-69
2022/03/25 07:40:11;;;;;;;18.33;9.55;;;3.10;99.90;;;;;;5020796;28;20025;-68
2022/03/25 07:42:39;;;;;;;27.48;10.80;;;3.30;99.90;;;;;;5038232;28;20092;-70
2022/03/25 07:45:09;;;;;;;26.52;9.63;;;3.40;99.90;;;;;;5038223;28;20040;-69
2022/03/25 07:47:48;;;;;;;25.20;10.15;;;3.50;99.90;;;;;;5037831;28;20083;-68
2022/03/25 07:50:18;;;;;;;18.77;9.10;;;3.70;99.90;;;;;;5037981;28;20025;-71
2022/03/25 07:52:46;;;;;;;24.52;9.88;;;3.90;99.90;;;;;;5038115;28;20366;-74
2022/03/25 07:55:17;;;;;;;27.45;9.82;;;4.00;99.90;;;;;;5037866;28;20021;-70
2022/03/25 07:57:46;;;;;;;29.70;11.07;;;4.20;99.90;;;;;;5038160;28;20026;-69
2022/03/25 08:00:14;;;;;;;26.52;9.10;;;4.30;99.90;;;;;;5038336;28;20022;-69
2022/03/25 08:02:51;;;;;;;22.90;8.75;;;4.40;99.90;;;;;;5037882;28;20100;-69
2022/03/25 08:05:19;;;;;;;22.98;9.32;;;4.60;99.90;;;;;;5038527;28;20144;-68
2022/03/25 08:07:49;;;;;;;30.15;10.63;;;4.80;99.90;;;;;;5037721;28;20044;-70
2022/03/25 08:10:18;;;;;;;23.80;8.50;;;4.90;99.90;;;;;;5037849;28;20040;-69
2022/03/25 08:12:46;;;;;;;26.90;9.02;;;5.10;99.90;;;;;;5020185;28;20029;-70
2022/03/25 08:15:13;;;;;;;22.25;8.20;;;5.30;99.90;;;;;;5038360;28;20021;-70
2022/03/25 08:17:51;;;;;;;25.25;8.35;;;5.50;99.90;;;;;;5037643;28;20447;-72
2022/03/25 08:20:28;;;;;;;25.70;8.98;;;5.60;99.90;;;;;;5020118;28;20064;-70
2022/03/25 08:23:00;;;;;;;24.08;9.35;;;5.80;99.90;;;;;;5037557;28;20029;-70
2022/03/25 08:28:18;;;;;;;22.02;9.05;;;6.10;99.90;;;;;;5036990;28;20548;-69
2022/03/25 08:30:47;;;;;;;24.55;8.73;;;6.30;99.90;;;;;;5037852;28;20018;-69
2022/03/25 08:33:15;;;;;;;23.02;8.50;;;6.40;99.90;;;;;;5037118;28;20103;-72
2022/03/25 08:35:45;;;;;;;23.63;7.35;;;6.60;99.90;;;;;;5021056;28;20046;-72
2022/03/25 08:38:13;;;;;;;15.65;6.93;;;6.80;99.90;;;;;;5019926;28;20048;-72
2022/03/25 08:40:41;;;;;;;13.90;6.70;;;7.00;99.90;;;;;;5037911;28;20028;-72
2022/03/25 08:43:08;;;;;;;19.60;7.15;;;7.20;99.90;;;;;;5019849;28;20311;-72
2022/03/25 08:45:36;;;;;;;17.63;7.03;;;7.40;99.90;;;;;;5037445;28;20311;-72
2022/03/25 08:48:04;;;;;;;16.20;6.38;;;7.60;99.90;;;;;;5019734;28;20325;-71
2022/03/25 08:50:31;;;;;;;20.55;7.10;;;7.80;99.90;;;;;;5037311;28;20014;-71
2022/03/25 08:52:59;;;;;;;14.60;6.55;;;8.00;99.40;;;;;;5037222;28;20326;-72
2022/03/25 08:55:26;;;;;;;17.73;7.32;;;8.10;97.30;;;;;;5020302;28;20356;-72
2022/03/25 08:57:54;;;;;;;14.60;6.63;;;8.30;95.90;;;;;;5037248;28;20029;-70
2022/03/25 09:00:22;;;;;;;15.77;6.93;;;8.50;95.00;;;;;;5037868;28;20425;-69
2022/03/25 09:02:50;;;;;;;24.65;7.72;;;8.50;94.10;;;;;;5039742;28;20370;-70
2022/03/25 09:05:19;;;;;;;15.35;6.88;;;8.70;93.50;;;;;;5041737;28;20310;-69
2022/03/25 09:07:47;;;;;;;20.63;7.25;;;8.80;92.90;;;;;;5041089;28;20025;-72
2022/03/25 09:10:15;;;;;;;24.27;8.27;;;8.90;92.90;;;;;;5041580;28;20310;-71
2022/03/25 09:12:44;;;;;;;21.27;7.55;;;9.00;93.10;;;;;;5040490;28;20136;-72
2022/03/25 09:15:15;;;;;;;26.60;7.88;;;9.10;92.60;;;;;;5042515;28;20294;-72
2022/03/25 09:17:45;;;;;;;19.70;8.00;;;9.20;91.80;;;;;;5023433;28;20079;-70
2022/03/25 09:20:13;;;;;;;19.90;7.85;;;9.40;90.60;;;;;;5024209;28;20032;-72
2022/03/25 09:22:41;;;;;;;18.55;7.65;;;9.50;87.20;;;;;;5041688;28;20348;-68
2022/03/25 09:25:09;;;;;;;17.98;7.15;;;9.60;85.80;;;;;;5041351;28;20025;-72
2022/03/25 09:27:39;;;;;;;16.40;7.32;;;9.70;80.50;;;;;;5023154;28;20310;-69
2022/03/25 09:30:08;;;;;;;17.30;7.65;;;9.90;77.80;;;;;;5041453;28;20436;-70
2022/03/25 09:32:36;;;;;;;22.58;8.32;;;10.00;75.70;;;;;;5040273;28;20048;-72
2022/03/25 09:35:13;;;;;;;17.55;7.13;;;10.20;76.20;;;;;;5040503;28;20038;-72
2022/03/25 09:37:47;;;;;;;20.33;8.18;;;10.30;75.40;;;;;;5040676;28;20175;-73
2022/03/25 09:40:18;;;;;;;19.98;8.55;;;10.40;74.60;;;;;;5040742;28;20417;-72
2022/03/25 09:42:46;;;;;;;21.63;9.45;;;10.50;73.80;;;;;;5040574;28;20026;-73
2022/03/25 09:45:15;;;;;;;24.38;9.48;;;10.60;72.80;;;;;;5040966;28;20458;-72
2022/03/25 09:47:43;;;;;;;21.33;9.77;;;10.70;72.20;;;;;;5040403;28;20041;-73
2022/03/25 09:50:13;;;;;;;24.90;9.13;;;10.80;71.10;;;;;;5022997;28;20478;-72
2022/03/25 09:52:43;;;;;;;20.15;8.85;;;11.00;70.00;;;;;;5039551;28;20030;-70
2022/03/25 09:55:11;;;;;;;23.50;10.20;;;11.10;70.00;;;;;;5040314;28;20132;-70
2022/03/25 09:57:38;;;;;;;23.75;9.77;;;11.20;70.30;;;;;;5040230;28;20026;-70
2022/03/25 10:00:08;;;;;;;24.92;11.65;;;11.30;70.20;;;;;;5040864;28;20405;-70
2022/03/25 10:02:36;;;;;;;25.25;10.80;;;11.40;70.60;;;;;;5040636;28;20036;-70
2022/03/25 10:05:18;;;;;;;63.92;24.45;;;11.40;71.30;;;;;;5040093;28;20052;-70
2022/03/25 10:07:57;;;;;;;31.05;13.63;;;11.60;71.90;;;;;;5039946;28;20104;-70
2022/03/25 10:10:27;;;;;;;26.40;12.80;;;11.70;72.20;;;;;;5040216;28;20422;-70
2022/03/25 10:13:04;;;;;;;25.38;13.48;;;11.80;72.20;;;;;;5039402;28;20120;-70
2022/03/25 10:15:34;;;;;;;29.48;12.90;;;11.90;72.60;;;;;;5040247;28;20101;-70
2022/03/25 10:18:06;;;;;;;28.55;11.93;;;12.00;73.10;;;;;;5039765;28;20079;-70
2022/03/25 10:20:42;;;;;;;31.70;13.63;;;12.10;73.00;;;;;;5040477;28;20080;-70
2022/03/25 10:23:15;;;;;;;26.77;13.05;;;12.10;73.20;;;;;;5039987;28;20029;-69
2022/03/25 10:25:53;;;;;;;24.63;13.38;;;12.30;74.40;;;;;;5040267;28;20026;-69
2022/03/25 10:28:39;;;;;;;31.38;14.68;;;12.30;74.70;;;;;;5039620;28;20112;-70
2022/03/25 10:31:17;;;;;;;31.98;14.15;;;12.40;75.00;;;;;;5040392;28;20456;-69
2022/03/25 10:33:49;;;;;;;29.00;13.88;;;12.50;75.70;;;;;;5038915;28;20452;-70
2022/03/25 10:36:23;;;;;;;28.67;13.43;;;12.60;75.60;;;;;;5021538;28;20056;-70
2022/03/25 10:39:11;;;;;;;31.25;15.93;;;12.70;75.40;;;;;;5040025;28;20025;-69
2022/03/25 10:41:46;;;;;;;30.92;15.35;;;12.70;75.70;;;;;;5039312;28;20025;-70
2022/03/25 10:44:13;;;;;;;30.20;14.88;;;12.80;76.30;;;;;;5039393;28;20025;-70
2022/03/25 10:46:53;;;;;;;37.47;16.17;;;12.90;75.70;;;;;;5039872;28;20075;-70
2022/03/25 10:49:21;;;;;;;38.92;16.60;;;12.90;75.90;;;;;;5039267;28;20303;-70
2022/03/25 10:51:56;;;;;;;34.85;14.90;;;13.00;75.10;;;;;;5039293;28;20025;-70
2022/03/25 10:54:25;;;;;;;31.90;14.03;;;13.10;75.00;;;;;;5039297;28;20091;-70
2022/03/25 10:56:55;;;;;;;37.72;15.48;;;13.10;74.60;;;;;;5039146;28;20020;-70
2022/03/25 10:59:34;;;;;;;31.70;15.65;;;13.20;74.10;;;;;;5039082;28;20025;-68
2022/03/25 11:02:07;;;;;;;31.15;14.82;;;13.20;73.60;;;;;;5039508;28;20088;-69
2022/03/25 11:04:35;;;;;;;26.52;12.13;;;13.20;72.80;;;;;;5021501;28;20365;-69
2022/03/25 11:07:04;;;;;;;31.65;15.55;;;13.30;73.20;;;;;;5039214;28;20083;-68
2022/03/25 11:09:32;;;;;;;35.05;14.95;;;13.30;73.20;;;;;;5038791;28;20413;-70
2022/03/25 11:12:00;;;;;;;26.13;14.90;;;13.40;73.00;;;;;;5038961;28;20089;-67
2022/03/25 11:14:27;;;;;;;33.45;14.80;;;13.40;72.30;;;;;;5039001;28;20021;-67
2022/03/25 11:16:58;;;;;;;29.55;13.52;;;13.50;73.20;;;;;;5020680;28;20413;-74
2022/03/25 11:19:27;;;;;;;31.67;13.48;;;13.40;72.90;;;;;;5038491;28;20029;-66
2022/03/25 11:21:57;;;;;;;33.78;15.07;;;13.50;72.60;;;;;;5021121;28;20366;-67
2022/03/25 11:24:44;;;;;;;27.35;12.05;;;13.60;72.80;;;;;;5038260;28;20028;-67
2022/03/25 11:27:28;;;;;;;26.65;13.15;;;13.60;72.60;;;;;;5039045;28;20018;-67
2022/03/25 11:30:02;;;;;;;28.20;14.70;;;13.70;72.70;;;;;;5038598;28;20079;-67
2022/03/25 11:32:30;;;;;;;36.10;14.48;;;13.80;72.40;;;;;;5038583;28;20089;-67
2022/03/25 11:34:57;;;;;;;30.40;13.60;;;13.90;71.80;;;;;;5017690;28;20339;-67
2022/03/25 11:37:33;;;;;;;25.60;12.90;;;13.90;71.50;;;;;;5017579;28;20033;-67
2022/03/25 11:40:16;;;;;;;33.33;15.45;;;14.00;71.60;;;;;;5018640;28;20025;-67
2022/03/25 11:42:45;;;;;;;26.50;12.65;;;14.00;71.30;;;;;;5019067;28;20136;-67
2022/03/25 11:45:22;;;;;;;34.22;14.05;;;14.00;71.00;;;;;;5018635;28;20060;-67
2022/03/25 11:48:05;;;;;;;25.42;13.80;;;14.10;71.60;;;;;;5017264;28;20109;-67
2022/03/25 11:50:41;;;;;;;26.80;13.93;;;14.20;71.50;;;;;;5018924;28;20045;-66
2022/03/25 11:53:15;;;;;;;29.15;13.85;;;14.20;72.00;;;;;;5018400;28;20014;-69
2022/03/25 11:56:02;;;;;;;25.85;12.98;;;14.20;71.90;;;;;;5018882;28;20082;-69
2022/03/25 11:58:55;;;;;;;24.83;12.63;;;14.30;71.50;;;;;;5018587;28;20034;-69
2022/03/25 12:01:24;;;;;;;28.98;13.95;;;14.40;71.50;;;;;;5018537;28;20349;-69
2022/03/25 12:03:56;;;;;;;34.83;13.75;;;14.40;71.20;;;;;;5018792;28;20026;-69
2022/03/25 12:06:29;;;;;;;26.23;14.57;;;14.50;70.60;;;;;;5018122;28;20026;-69
2022/03/25 12:09:18;;;;;;;26.70;12.93;;;14.60;71.10;;;;;;5018711;28;20053;-67
2022/03/25 12:11:58;;;;;;;26.50;12.93;;;14.60;69.80;;;;;;5018095;28;20022;-67
2022/03/25 12:14:32;;;;;;;24.65;11.95;;;14.70;69.80;;;;;;5018300;28;20040;-67
2022/03/25 12:17:08;;;;;;;33.03;14.65;;;14.70;69.30;;;;;;5018270;28;20036;-67
2022/03/25 12:19:41;;;;;;;33.88;14.15;;;14.80;69.80;;;;;;5018193;28;20453;-67
2022/03/25 12:22:23;;;;;;;26.70;13.75;;;14.90;69.90;;;;;;5018474;28;20092;-67
2022/03/25 12:24:56;;;;;;;24.00;13.52;;;14.90;69.10;;;;;;5018448;28;20422;-67
2022/03/25 12:27:24;;;;;;;30.08;14.18;;;15.00;69.20;;;;;;5017708;28;20141;-67
2022/03/25 12:29:54;;;;;;;29.48;13.95;;;15.10;67.60;;;;;;5016927;28;20029;-67
2022/03/25 12:32:23;;;;;;;32.70;13.82;;;15.10;66.70;;;;;;5017819;28;20080;-67
2022/03/25 12:35:08;;;;;;;28.85;12.02;;;15.20;67.00;;;;;;5033664;28;20132;-67
2022/03/25 12:37:37;;;;;;;26.30;11.90;;;15.20;66.10;;;;;;5019266;28;20034;-67
2022/03/25 12:40:24;;;;;;;21.25;11.52;;;15.20;65.80;;;;;;5020097;28;20045;-67
2022/03/25 12:42:54;;;;;;;26.40;11.65;;;15.20;65.20;;;;;;5037545;28;20021;-67
2022/03/25 12:45:37;;;;;;;28.67;12.65;;;15.30;64.70;;;;;;5037003;28;20040;-67
2022/03/25 12:48:10;;;;;;;29.35;13.63;;;15.40;64.70;;;;;;5019666;28;20496;-67
2022/03/25 12:50:43;;;;;;;27.05;13.52;;;15.50;64.30;;;;;;5037763;28;20026;-67
2022/03/25 12:53:11;;;;;;;29.58;13.48;;;15.50;64.20;;;;;;5037833;28;20113;-67